sensor_id;sensor_type;location;lat;lon;timestamp;P1;durP1;ratioP1;P2;durP2;ratioP2
32094;SDS011;18608;53.688;10.748;2022-08-25T00:01:19;7.47;;;5.73;;
32094;SDS011;18608;53.688;10.748;2022-08-25T00:03:47;5.07;;;4.57;;
32094;SDS011;18608;53.688;10.748;2022-08-25T00:06:13;8.47;;;5.70;;
32094;SDS011;18608;53.688;10.748;2022-08-25T00:08:40;8.93;;;4.90;;
32094;SDS011;18608;53.688;10.748;2022-08-25T00:11:08;8.17;;;4.80;;
32094;SDS011;18608;53.688;10.748;2022-08-25T00:13:44;5.83;;;4.87;;
32094;SDS011;18608;53.688;10.748;2022-08-25T00:16:13;4.93;;;4.33;;
32094;SDS011;18608;53.688;10.748;2022-08-25T00:18:41;6.90;;;4.23;;
32094;SDS011;18608;53.688;10.748;2022-08-25T00:21:10;12.50;;;5.87;;
32094;SDS011;18608;53.688;10.748;2022-08-25T00:23:37;8.60;;;5.17;;
32094;SDS011;18608;53.688;10.748;2022-08-25T00:26:04;6.07;;;4.73;;
32094;SDS011;18608;53.688;10.748;2022-08-25T00:28:30;6.27;;;4.63;;
32094;SDS011;18608;53.688;10.748;2022-08-25T00:30:56;5.73;;;5.23;;
32094;SDS011;18608;53.688;10.748;2022-08-25T00:33:25;14.93;;;5.67;;
32094;SDS011;18608;53.688;10.748;2022-08-25T00:35:51;5.73;;;5.00;;
32094;SDS011;18608;53.688;10.748;2022-08-25T00:38:18;6.30;;;5.70;;
32094;SDS011;18608;53.688;10.748;2022-08-25T00:40:44;5.93;;;5.23;;
32094;SDS011;18608;53.688;10.748;2022-08-25T00:43:10;8.20;;;5.90;;
32094;SDS011;18608;53.688;10.748;2022-08-25T00:45:36;6.20;;;5.30;;
32094;SDS011;18608;53.688;10.748;2022-08-25T00:48:02;7.97;;;5.17;;
32094;SDS011;18608;53.688;10.748;2022-08-25T00:50:29;5.40;;;4.90;;
32094;SDS011;18608;53.688;10.748;2022-08-25T00:52:59;10.27;;;5.90;;
32094;SDS011;18608;53.688;10.748;2022-08-25T00:55:28;7.77;;;5.50;;
32094;SDS011;18608;53.688;10.748;2022-08-25T00:58:03;9.43;;;5.07;;
32094;SDS011;18608;53.688;10.748;2022-08-25T01:00:38;16.77;;;6.63;;
32094;SDS011;18608;53.688;10.748;2022-08-25T01:03:06;8.00;;;5.80;;
32094;SDS011;18608;53.688;10.748;2022-08-25T01:05:32;6.20;;;5.63;;
32094;SDS011;18608;53.688;10.748;2022-08-25T01:07:58;9.10;;;6.10;;
32094;SDS011;18608;53.688;10.748;2022-08-25T01:10:27;10.60;;;6.30;;
32094;SDS011;18608;53.688;10.748;2022-08-25T01:12:54;9.80;;;5.67;;
32094;SDS011;18608;53.688;10.748;2022-08-25T01:15:25;7.57;;;6.00;;
32094;SDS011;18608;53.688;10.748;2022-08-25T01:17:54;10.43;;;5.80;;
32094;SDS011;18608;53.688;10.748;2022-08-25T01:20:22;7.83;;;5.80;;
32094;SDS011;18608;53.688;10.748;2022-08-25T01:22:49;8.33;;;5.80;;
32094;SDS011;18608;53.688;10.748;2022-08-25T01:27:47;6.90;;;6.30;;
32094;SDS011;18608;53.688;10.748;2022-08-25T01:30:13;16.20;;;7.03;;
32094;SDS011;18608;53.688;10.748;2022-08-25T01:32:39;8.53;;;6.03;;
32094;SDS011;18608;53.688;10.748;2022-08-25T01:35:05;10.10;;;6.20;;
32094;SDS011;18608;53.688;10.748;2022-08-25T01:37:40;10.30;;;6.47;;
32094;SDS011;18608;53.688;10.748;2022-08-25T01:40:06;13.30;;;6.50;;
32094;SDS011;18608;53.688;10.748;2022-08-25T01:44:58;8.60;;;6.13;;
32094;SDS011;18608;53.688;10.748;2022-08-25T01:47:24;10.80;;;6.67;;
32094;SDS011;18608;53.688;10.748;2022-08-25T01:49:50;14.40;;;7.37;;
32094;SDS011;18608;53.688;10.748;2022-08-25T01:54:51;10.60;;;9.00;;
32094;SDS011;18608;53.688;10.748;2022-08-25T01:57:17;12.40;;;7.40;;
32094;SDS011;18608;53.688;10.748;2022-08-25T01:59:43;11.93;;;6.20;;
32094;SDS011;18608;53.688;10.748;2022-08-25T02:02:10;11.17;;;7.30;;
32094;SDS011;18608;53.688;10.748;2022-08-25T02:04:36;11.57;;;8.40;;
32094;SDS011;18608;53.688;10.748;2022-08-25T02:07:04;13.80;;;5.80;;
32094;SDS011;18608;53.688;10.748;2022-08-25T02:09:31;7.03;;;6.00;;
32094;SDS011;18608;53.688;10.748;2022-08-25T02:11:57;12.10;;;6.67;;
32094;SDS011;18608;53.688;10.748;2022-08-25T02:14:23;10.77;;;6.87;;
32094;SDS011;18608;53.688;10.748;2022-08-25T02:16:50;11.83;;;7.47;;
32094;SDS011;18608;53.688;10.748;2022-08-25T02:19:17;14.03;;;7.60;;
32094;SDS011;18608;53.688;10.748;2022-08-25T02:21:45;18.57;;;8.70;;
32094;SDS011;18608;53.688;10.748;2022-08-25T02:24:11;11.80;;;7.07;;
32094;SDS011;18608;53.688;10.748;2022-08-25T02:26:36;11.63;;;8.67;;
32094;SDS011;18608;53.688;10.748;2022-08-25T02:29:03;13.87;;;8.23;;
32094;SDS011;18608;53.688;10.748;2022-08-25T02:31:29;12.20;;;7.70;;
32094;SDS011;18608;53.688;10.748;2022-08-25T02:33:55;14.13;;;9.47;;
32094;SDS011;18608;53.688;10.748;2022-08-25T02:36:21;12.43;;;8.63;;
32094;SDS011;18608;53.688;10.748;2022-08-25T02:38:47;11.33;;;9.47;;
32094;SDS011;18608;53.688;10.748;2022-08-25T02:41:17;16.20;;;9.60;;
32094;SDS011;18608;53.688;10.748;2022-08-25T02:43:45;16.03;;;11.27;;
32094;SDS011;18608;53.688;10.748;2022-08-25T02:46:12;15.50;;;10.70;;
32094;SDS011;18608;53.688;10.748;2022-08-25T02:48:39;16.53;;;10.57;;
32094;SDS011;18608;53.688;10.748;2022-08-25T02:51:06;19.90;;;11.23;;
32094;SDS011;18608;53.688;10.748;2022-08-25T02:53:33;13.63;;;10.70;;
32094;SDS011;18608;53.688;10.748;2022-08-25T02:55:59;13.67;;;10.67;;
32094;SDS011;18608;53.688;10.748;2022-08-25T02:58:25;16.83;;;11.93;;
32094;SDS011;18608;53.688;10.748;2022-08-25T03:00:51;17.00;;;11.93;;
32094;SDS011;18608;53.688;10.748;2022-08-25T03:03:17;17.93;;;12.00;;
32094;SDS011;18608;53.688;10.748;2022-08-25T03:05:43;19.57;;;11.93;;
32094;SDS011;18608;53.688;10.748;2022-08-25T03:08:10;19.50;;;11.63;;
32094;SDS011;18608;53.688;10.748;2022-08-25T03:10:36;18.20;;;11.73;;
32094;SDS011;18608;53.688;10.748;2022-08-25T03:13:02;18.27;;;12.80;;
32094;SDS011;18608;53.688;10.748;2022-08-25T03:15:29;20.13;;;12.37;;
32094;SDS011;18608;53.688;10.748;2022-08-25T03:17:55;22.87;;;12.83;;
32094;SDS011;18608;53.688;10.748;2022-08-25T03:20:22;24.53;;;13.80;;
32094;SDS011;18608;53.688;10.748;2022-08-25T03:22:48;21.30;;;12.10;;
32094;SDS011;18608;53.688;10.748;2022-08-25T03:25:14;23.57;;;13.40;;
32094;SDS011;18608;53.688;10.748;2022-08-25T03:28:00;17.70;;;12.80;;
32094;SDS011;18608;53.688;10.748;2022-08-25T03:30:26;19.60;;;11.53;;
32094;SDS011;18608;53.688;10.748;2022-08-25T03:32:52;23.30;;;14.27;;
32094;SDS011;18608;53.688;10.748;2022-08-25T03:35:18;22.43;;;13.57;;
32094;SDS011;18608;53.688;10.748;2022-08-25T03:37:44;20.17;;;11.63;;
32094;SDS011;18608;53.688;10.748;2022-08-25T03:40:11;22.13;;;12.20;;
32094;SDS011;18608;53.688;10.748;2022-08-25T03:42:39;22.20;;;12.97;;
32094;SDS011;18608;53.688;10.748;2022-08-25T03:45:05;21.80;;;12.87;;
32094;SDS011;18608;53.688;10.748;2022-08-25T03:47:32;24.20;;;13.67;;
32094;SDS011;18608;53.688;10.748;2022-08-25T03:49:58;17.07;;;11.47;;
32094;SDS011;18608;53.688;10.748;2022-08-25T03:52:24;17.47;;;12.53;;
32094;SDS011;18608;53.688;10.748;2022-08-25T03:54:50;24.80;;;15.33;;
32094;SDS011;18608;53.688;10.748;2022-08-25T03:57:16;27.70;;;15.23;;
32094;SDS011;18608;53.688;10.748;2022-08-25T03:59:44;20.37;;;14.10;;
32094;SDS011;18608;53.688;10.748;2022-08-25T04:02:10;22.20;;;13.83;;
32094;SDS011;18608;53.688;10.748;2022-08-25T04:04:36;28.13;;;15.47;;
32094;SDS011;18608;53.688;10.748;2022-08-25T04:07:02;25.17;;;14.60;;
32094;SDS011;18608;53.688;10.748;2022-08-25T04:09:28;25.67;;;14.97;;
32094;SDS011;18608;53.688;10.748;2022-08-25T04:11:55;25.13;;;15.50;;
32094;SDS011;18608;53.688;10.748;2022-08-25T04:14:21;32.10;;;15.00;;
32094;SDS011;18608;53.688;10.748;2022-08-25T04:16:47;28.20;;;15.40;;
32094;SDS011;18608;53.688;10.748;2022-08-25T04:19:13;26.67;;;15.00;;
32094;SDS011;18608;53.688;10.748;2022-08-25T04:21:40;24.10;;;14.80;;
32094;SDS011;18608;53.688;10.748;2022-08-25T04:24:07;27.20;;;16.20;;
32094;SDS011;18608;53.688;10.748;2022-08-25T04:26:35;25.40;;;16.43;;
32094;SDS011;18608;53.688;10.748;2022-08-25T04:29:03;26.30;;;16.33;;
32094;SDS011;18608;53.688;10.748;2022-08-25T04:31:31;31.83;;;15.07;;
32094;SDS011;18608;53.688;10.748;2022-08-25T04:33:59;22.17;;;16.27;;
32094;SDS011;18608;53.688;10.748;2022-08-25T04:36:29;27.90;;;16.83;;
32094;SDS011;18608;53.688;10.748;2022-08-25T04:38:55;23.83;;;15.20;;
32094;SDS011;18608;53.688;10.748;2022-08-25T04:41:22;20.27;;;14.33;;
32094;SDS011;18608;53.688;10.748;2022-08-25T04:43:48;25.57;;;16.53;;
32094;SDS011;18608;53.688;10.748;2022-08-25T04:46:22;29.53;;;16.87;;
32094;SDS011;18608;53.688;10.748;2022-08-25T04:48:50;30.37;;;16.27;;
32094;SDS011;18608;53.688;10.748;2022-08-25T04:51:19;20.80;;;14.13;;
32094;SDS011;18608;53.688;10.748;2022-08-25T04:53:49;33.43;;;17.23;;
32094;SDS011;18608;53.688;10.748;2022-08-25T04:56:16;32.20;;;15.40;;
32094;SDS011;18608;53.688;10.748;2022-08-25T04:58:43;27.13;;;17.73;;
32094;SDS011;18608;53.688;10.748;2022-08-25T05:01:13;33.03;;;18.17;;
32094;SDS011;18608;53.688;10.748;2022-08-25T05:03:42;37.37;;;17.60;;
32094;SDS011;18608;53.688;10.748;2022-08-25T05:06:09;37.77;;;19.47;;
32094;SDS011;18608;53.688;10.748;2022-08-25T05:08:35;30.50;;;18.07;;
32094;SDS011;18608;53.688;10.748;2022-08-25T05:11:09;33.67;;;19.57;;
32094;SDS011;18608;53.688;10.748;2022-08-25T05:13:38;25.27;;;16.90;;
32094;SDS011;18608;53.688;10.748;2022-08-25T05:16:04;28.47;;;17.40;;
32094;SDS011;18608;53.688;10.748;2022-08-25T05:18:30;29.80;;;18.43;;
32094;SDS011;18608;53.688;10.748;2022-08-25T05:21:00;32.63;;;19.00;;
32094;SDS011;18608;53.688;10.748;2022-08-25T05:23:28;33.03;;;17.50;;
32094;SDS011;18608;53.688;10.748;2022-08-25T05:25:54;35.57;;;18.00;;
32094;SDS011;18608;53.688;10.748;2022-08-25T05:28:20;47.60;;;20.20;;
32094;SDS011;18608;53.688;10.748;2022-08-25T05:30:46;27.73;;;19.20;;
32094;SDS011;18608;53.688;10.748;2022-08-25T05:33:16;45.23;;;21.20;;
32094;SDS011;18608;53.688;10.748;2022-08-25T05:35:42;36.80;;;19.07;;
32094;SDS011;18608;53.688;10.748;2022-08-25T05:38:09;41.03;;;20.23;;
32094;SDS011;18608;53.688;10.748;2022-08-25T05:40:35;34.50;;;19.70;;
32094;SDS011;18608;53.688;10.748;2022-08-25T05:43:00;35.40;;;21.27;;
32094;SDS011;18608;53.688;10.748;2022-08-25T05:45:26;34.87;;;19.60;;
32094;SDS011;18608;53.688;10.748;2022-08-25T05:47:52;34.73;;;19.30;;
32094;SDS011;18608;53.688;10.748;2022-08-25T05:50:18;40.53;;;20.70;;
32094;SDS011;18608;53.688;10.748;2022-08-25T05:52:44;25.20;;;17.90;;
32094;SDS011;18608;53.688;10.748;2022-08-25T05:55:10;32.20;;;19.17;;
32094;SDS011;18608;53.688;10.748;2022-08-25T05:57:37;28.70;;;16.07;;
32094;SDS011;18608;53.688;10.748;2022-08-25T06:00:04;38.33;;;18.40;;
32094;SDS011;18608;53.688;10.748;2022-08-25T06:02:30;36.80;;;18.67;;
32094;SDS011;18608;53.688;10.748;2022-08-25T06:05:06;36.03;;;18.50;;
32094;SDS011;18608;53.688;10.748;2022-08-25T06:07:32;34.37;;;19.83;;
32094;SDS011;18608;53.688;10.748;2022-08-25T06:10:00;27.23;;;17.43;;
32094;SDS011;18608;53.688;10.748;2022-08-25T06:12:26;32.50;;;20.00;;
32094;SDS011;18608;53.688;10.748;2022-08-25T06:14:52;27.33;;;16.30;;
32094;SDS011;18608;53.688;10.748;2022-08-25T06:17:18;32.83;;;17.27;;
32094;SDS011;18608;53.688;10.748;2022-08-25T06:19:44;27.63;;;15.60;;
32094;SDS011;18608;53.688;10.748;2022-08-25T06:22:09;24.87;;;16.03;;
32094;SDS011;18608;53.688;10.748;2022-08-25T06:24:35;22.23;;;16.43;;
32094;SDS011;18608;53.688;10.748;2022-08-25T06:27:01;22.63;;;15.07;;
32094;SDS011;18608;53.688;10.748;2022-08-25T06:29:27;25.97;;;14.73;;
32094;SDS011;18608;53.688;10.748;2022-08-25T06:31:53;20.80;;;13.47;;
32094;SDS011;18608;53.688;10.748;2022-08-25T06:34:19;28.20;;;14.47;;
32094;SDS011;18608;53.688;10.748;2022-08-25T06:36:45;24.40;;;13.67;;
32094;SDS011;18608;53.688;10.748;2022-08-25T06:39:11;22.07;;;12.90;;
32094;SDS011;18608;53.688;10.748;2022-08-25T06:41:37;19.00;;;12.17;;
32094;SDS011;18608;53.688;10.748;2022-08-25T06:44:03;19.20;;;13.27;;
32094;SDS011;18608;53.688;10.748;2022-08-25T06:46:29;23.43;;;12.50;;
32094;SDS011;18608;53.688;10.748;2022-08-25T06:48:55;16.60;;;12.30;;
32094;SDS011;18608;53.688;10.748;2022-08-25T06:51:22;17.03;;;11.10;;
32094;SDS011;18608;53.688;10.748;2022-08-25T06:53:50;15.83;;;10.73;;
32094;SDS011;18608;53.688;10.748;2022-08-25T06:56:17;14.50;;;11.53;;
32094;SDS011;18608;53.688;10.748;2022-08-25T06:58:44;15.50;;;11.50;;
32094;SDS011;18608;53.688;10.748;2022-08-25T07:03:36;18.27;;;11.17;;
32094;SDS011;18608;53.688;10.748;2022-08-25T07:06:02;17.33;;;9.97;;
32094;SDS011;18608;53.688;10.748;2022-08-25T07:08:29;12.13;;;9.53;;
32094;SDS011;18608;53.688;10.748;2022-08-25T07:10:55;14.83;;;10.83;;
32094;SDS011;18608;53.688;10.748;2022-08-25T07:13:20;12.73;;;9.43;;
32094;SDS011;18608;53.688;10.748;2022-08-25T07:15:46;17.43;;;10.63;;
32094;SDS011;18608;53.688;10.748;2022-08-25T07:18:18;17.07;;;9.37;;
32094;SDS011;18608;53.688;10.748;2022-08-25T07:20:44;21.10;;;9.20;;
32094;SDS011;18608;53.688;10.748;2022-08-25T07:23:10;12.77;;;7.83;;
32094;SDS011;18608;53.688;10.748;2022-08-25T07:25:36;13.43;;;8.63;;
32094;SDS011;18608;53.688;10.748;2022-08-25T07:28:02;10.33;;;7.70;;
32094;SDS011;18608;53.688;10.748;2022-08-25T07:30:28;10.90;;;7.80;;
32094;SDS011;18608;53.688;10.748;2022-08-25T07:32:54;14.37;;;6.80;;
32094;SDS011;18608;53.688;10.748;2022-08-25T07:35:20;13.43;;;6.60;;
32094;SDS011;18608;53.688;10.748;2022-08-25T07:37:50;12.17;;;9.00;;
32094;SDS011;18608;53.688;10.748;2022-08-25T07:40:20;16.30;;;7.23;;
32094;SDS011;18608;53.688;10.748;2022-08-25T07:42:48;7.23;;;5.80;;
32094;SDS011;18608;53.688;10.748;2022-08-25T07:45:15;9.33;;;5.93;;
32094;SDS011;18608;53.688;10.748;2022-08-25T07:47:42;15.37;;;7.50;;
32094;SDS011;18608;53.688;10.748;2022-08-25T07:50:14;15.80;;;6.57;;
32094;SDS011;18608;53.688;10.748;2022-08-25T07:52:40;13.03;;;6.53;;
32094;SDS011;18608;53.688;10.748;2022-08-25T07:55:06;10.93;;;6.60;;
32094;SDS011;18608;53.688;10.748;2022-08-25T07:57:33;8.90;;;5.50;;
32094;SDS011;18608;53.688;10.748;2022-08-25T07:59:59;9.57;;;6.43;;
32094;SDS011;18608;53.688;10.748;2022-08-25T08:02:24;8.37;;;5.13;;
32094;SDS011;18608;53.688;10.748;2022-08-25T08:04:51;17.40;;;6.27;;
32094;SDS011;18608;53.688;10.748;2022-08-25T08:07:21;16.93;;;6.90;;
32094;SDS011;18608;53.688;10.748;2022-08-25T08:09:49;8.03;;;5.93;;
32094;SDS011;18608;53.688;10.748;2022-08-25T08:12:15;17.00;;;6.03;;
32094;SDS011;18608;53.688;10.748;2022-08-25T08:14:41;11.17;;;6.03;;
32094;SDS011;18608;53.688;10.748;2022-08-25T08:17:08;21.57;;;6.13;;
32094;SDS011;18608;53.688;10.748;2022-08-25T08:19:35;8.43;;;6.53;;
32094;SDS011;18608;53.688;10.748;2022-08-25T08:22:01;5.83;;;5.23;;
32094;SDS011;18608;53.688;10.748;2022-08-25T08:24:29;8.70;;;5.13;;
32094;SDS011;18608;53.688;10.748;2022-08-25T08:26:56;8.77;;;5.63;;
32094;SDS011;18608;53.688;10.748;2022-08-25T08:29:22;4.90;;;4.40;;
32094;SDS011;18608;53.688;10.748;2022-08-25T08:31:48;17.87;;;5.27;;
32094;SDS011;18608;53.688;10.748;2022-08-25T08:34:14;10.67;;;5.90;;
32094;SDS011;18608;53.688;10.748;2022-08-25T08:36:40;16.50;;;6.87;;
32094;SDS011;18608;53.688;10.748;2022-08-25T08:39:05;9.90;;;5.77;;
32094;SDS011;18608;53.688;10.748;2022-08-25T08:50:17;19.23;;;5.73;;
32094;SDS011;18608;53.688;10.748;2022-08-25T08:55:43;15.10;;;4.67;;
32094;SDS011;18608;53.688;10.748;2022-08-25T08:58:27;14.10;;;5.57;;
32094;SDS011;18608;53.688;10.748;2022-08-25T09:01:00;7.70;;;4.30;;
32094;SDS011;18608;53.688;10.748;2022-08-25T09:05:53;12.53;;;4.63;;
32094;SDS011;18608;53.688;10.748;2022-08-25T09:08:23;5.30;;;4.53;;
32094;SDS011;18608;53.688;10.748;2022-08-25T09:13:46;9.13;;;6.67;;
32094;SDS011;18608;53.688;10.748;2022-08-25T09:16:46;9.87;;;4.20;;
32094;SDS011;18608;53.688;10.748;2022-08-25T09:27:25;6.10;;;3.63;;
32094;SDS011;18608;53.688;10.748;2022-08-25T09:30:10;5.63;;;3.97;;
32094;SDS011;18608;53.688;10.748;2022-08-25T09:32:49;6.13;;;4.30;;
32094;SDS011;18608;53.688;10.748;2022-08-25T09:35:22;11.23;;;4.40;;
32094;SDS011;18608;53.688;10.748;2022-08-25T09:37:57;5.57;;;4.10;;
32094;SDS011;18608;53.688;10.748;2022-08-25T09:40:26;5.70;;;4.23;;
32094;SDS011;18608;53.688;10.748;2022-08-25T09:42:55;4.53;;;3.53;;
32094;SDS011;18608;53.688;10.748;2022-08-25T09:45:30;3.17;;;2.97;;
32094;SDS011;18608;53.688;10.748;2022-08-25T09:47:59;4.93;;;3.73;;
32094;SDS011;18608;53.688;10.748;2022-08-25T09:50:28;7.40;;;5.07;;
32094;SDS011;18608;53.688;10.748;2022-08-25T09:53:06;6.67;;;3.97;;
32094;SDS011;18608;53.688;10.748;2022-08-25T09:55:39;5.80;;;4.07;;
32094;SDS011;18608;53.688;10.748;2022-08-25T09:58:15;5.43;;;3.70;;
32094;SDS011;18608;53.688;10.748;2022-08-25T10:00:46;7.17;;;4.47;;
32094;SDS011;18608;53.688;10.748;2022-08-25T10:06:29;9.20;;;3.67;;
32094;SDS011;18608;53.688;10.748;2022-08-25T10:09:02;4.93;;;4.10;;
32094;SDS011;18608;53.688;10.748;2022-08-25T10:14:02;9.33;;;3.93;;
32094;SDS011;18608;53.688;10.748;2022-08-25T10:16:40;8.03;;;4.57;;
32094;SDS011;18608;53.688;10.748;2022-08-25T10:19:07;10.20;;;4.10;;
32094;SDS011;18608;53.688;10.748;2022-08-25T10:21:34;7.67;;;4.20;;
32094;SDS011;18608;53.688;10.748;2022-08-25T10:24:02;5.53;;;3.60;;
32094;SDS011;18608;53.688;10.748;2022-08-25T10:29:37;6.20;;;4.00;;
32094;SDS011;18608;53.688;10.748;2022-08-25T10:32:29;9.30;;;3.27;;
32094;SDS011;18608;53.688;10.748;2022-08-25T10:34:57;5.90;;;3.93;;
32094;SDS011;18608;53.688;10.748;2022-08-25T10:45:42;6.40;;;3.00;;
32094;SDS011;18608;53.688;10.748;2022-08-25T10:57:01;7.63;;;3.20;;
32094;SDS011;18608;53.688;10.748;2022-08-25T11:16:16;10.77;;;4.20;;
32094;SDS011;18608;53.688;10.748;2022-08-25T11:21:39;4.50;;;2.80;;
32094;SDS011;18608;53.688;10.748;2022-08-25T11:26:54;7.70;;;4.03;;
32094;SDS011;18608;53.688;10.748;2022-08-25T11:29:22;8.53;;;3.23;;
32094;SDS011;18608;53.688;10.748;2022-08-25T11:31:54;4.93;;;3.20;;
32094;SDS011;18608;53.688;10.748;2022-08-25T11:34:23;4.57;;;2.80;;
32094;SDS011;18608;53.688;10.748;2022-08-25T11:36:59;4.00;;;2.90;;
32094;SDS011;18608;53.688;10.748;2022-08-25T11:53:30;5.50;;;3.30;;
32094;SDS011;18608;53.688;10.748;2022-08-25T11:56:10;6.47;;;3.57;;
32094;SDS011;18608;53.688;10.748;2022-08-25T11:58:56;5.13;;;3.13;;
32094;SDS011;18608;53.688;10.748;2022-08-25T12:18:14;5.27;;;3.83;;
32094;SDS011;18608;53.688;10.748;2022-08-25T12:26:27;10.07;;;3.67;;
32094;SDS011;18608;53.688;10.748;2022-08-25T12:34:40;5.53;;;3.93;;
32094;SDS011;18608;53.688;10.748;2022-08-25T12:37:11;3.67;;;3.07;;
32094;SDS011;18608;53.688;10.748;2022-08-25T12:39:43;9.03;;;4.10;;
32094;SDS011;18608;53.688;10.748;2022-08-25T12:47:38;13.83;;;3.93;;
32094;SDS011;18608;53.688;10.748;2022-08-25T12:52:57;11.90;;;3.67;;
32094;SDS011;18608;53.688;10.748;2022-08-25T12:55:32;5.37;;;3.87;;
32094;SDS011;18608;53.688;10.748;2022-08-25T12:57:58;11.63;;;5.03;;
32094;SDS011;18608;53.688;10.748;2022-08-25T13:11:17;5.30;;;4.20;;
32094;SDS011;18608;53.688;10.748;2022-08-25T13:13:56;6.50;;;3.90;;
32094;SDS011;18608;53.688;10.748;2022-08-25T13:16:50;6.03;;;3.87;;
32094;SDS011;18608;53.688;10.748;2022-08-25T13:19:17;5.20;;;4.27;;
32094;SDS011;18608;53.688;10.748;2022-08-25T13:21:43;6.87;;;3.97;;
32094;SDS011;18608;53.688;10.748;2022-08-25T13:24:29;7.93;;;3.70;;
32094;SDS011;18608;53.688;10.748;2022-08-25T13:26:59;3.67;;;3.37;;
32094;SDS011;18608;53.688;10.748;2022-08-25T13:29:28;5.03;;;3.37;;
32094;SDS011;18608;53.688;10.748;2022-08-25T13:32:00;4.93;;;3.73;;
32094;SDS011;18608;53.688;10.748;2022-08-25T13:34:34;7.83;;;3.90;;
32094;SDS011;18608;53.688;10.748;2022-08-25T13:37:06;4.00;;;3.60;;
32094;SDS011;18608;53.688;10.748;2022-08-25T13:40:12;6.13;;;3.70;;
32094;SDS011;18608;53.688;10.748;2022-08-25T13:42:40;5.40;;;3.90;;
32094;SDS011;18608;53.688;10.748;2022-08-25T13:45:08;10.20;;;3.17;;
32094;SDS011;18608;53.688;10.748;2022-08-25T13:47:41;4.90;;;3.93;;
32094;SDS011;18608;53.688;10.748;2022-08-25T13:52:43;4.70;;;4.20;;
32094;SDS011;18608;53.688;10.748;2022-08-25T13:55:21;4.23;;;3.90;;
32094;SDS011;18608;53.688;10.748;2022-08-25T13:57:49;11.40;;;3.90;;
32094;SDS011;18608;53.688;10.748;2022-08-25T14:00:25;4.30;;;3.83;;
32094;SDS011;18608;53.688;10.748;2022-08-25T14:02:53;13.30;;;3.90;;
32094;SDS011;18608;53.688;10.748;2022-08-25T14:05:39;3.77;;;3.47;;
32094;SDS011;18608;53.688;10.748;2022-08-25T14:08:07;4.63;;;4.00;;
32094;SDS011;18608;53.688;10.748;2022-08-25T14:11:01;6.70;;;3.20;;
32094;SDS011;18608;53.688;10.748;2022-08-25T14:13:35;4.13;;;3.50;;
32094;SDS011;18608;53.688;10.748;2022-08-25T14:16:05;7.07;;;4.00;;
32094;SDS011;18608;53.688;10.748;2022-08-25T14:18:47;3.63;;;3.30;;
32094;SDS011;18608;53.688;10.748;2022-08-25T14:21:23;4.10;;;3.57;;
32094;SDS011;18608;53.688;10.748;2022-08-25T14:23:51;3.83;;;3.20;;
32094;SDS011;18608;53.688;10.748;2022-08-25T14:26:18;5.47;;;4.00;;
32094;SDS011;18608;53.688;10.748;2022-08-25T14:28:44;8.03;;;3.90;;
32094;SDS011;18608;53.688;10.748;2022-08-25T14:31:14;10.30;;;3.37;;
32094;SDS011;18608;53.688;10.748;2022-08-25T14:33:42;4.03;;;2.97;;
32094;SDS011;18608;53.688;10.748;2022-08-25T14:36:32;6.20;;;3.67;;
32094;SDS011;18608;53.688;10.748;2022-08-25T14:38:58;6.93;;;3.30;;
32094;SDS011;18608;53.688;10.748;2022-08-25T14:41:29;3.47;;;3.17;;
32094;SDS011;18608;53.688;10.748;2022-08-25T14:43:58;6.80;;;3.90;;
32094;SDS011;18608;53.688;10.748;2022-08-25T14:46:26;4.87;;;3.50;;
32094;SDS011;18608;53.688;10.748;2022-08-25T14:48:55;5.97;;;3.93;;
32094;SDS011;18608;53.688;10.748;2022-08-25T14:51:24;3.47;;;3.17;;
32094;SDS011;18608;53.688;10.748;2022-08-25T14:53:51;4.37;;;3.60;;
32094;SDS011;18608;53.688;10.748;2022-08-25T14:56:20;3.93;;;2.70;;
32094;SDS011;18608;53.688;10.748;2022-08-25T14:58:45;9.23;;;4.40;;
32094;SDS011;18608;53.688;10.748;2022-08-25T15:01:15;5.40;;;2.93;;
32094;SDS011;18608;53.688;10.748;2022-08-25T15:03:43;8.40;;;4.60;;
32094;SDS011;18608;53.688;10.748;2022-08-25T15:06:11;4.60;;;3.20;;
32094;SDS011;18608;53.688;10.748;2022-08-25T15:08:39;6.27;;;3.90;;
32094;SDS011;18608;53.688;10.748;2022-08-25T15:11:24;8.00;;;3.30;;
32094;SDS011;18608;53.688;10.748;2022-08-25T15:13:50;7.33;;;3.30;;
32094;SDS011;18608;53.688;10.748;2022-08-25T15:16:21;5.23;;;3.43;;
32094;SDS011;18608;53.688;10.748;2022-08-25T15:18:50;3.67;;;3.37;;
32094;SDS011;18608;53.688;10.748;2022-08-25T15:21:17;3.40;;;3.10;;
32094;SDS011;18608;53.688;10.748;2022-08-25T15:23:42;4.60;;;2.80;;
32094;SDS011;18608;53.688;10.748;2022-08-25T15:26:09;5.43;;;3.80;;
32094;SDS011;18608;53.688;10.748;2022-08-25T15:28:37;11.90;;;3.57;;
32094;SDS011;18608;53.688;10.748;2022-08-25T15:31:05;3.93;;;3.30;;
32094;SDS011;18608;53.688;10.748;2022-08-25T15:33:31;7.73;;;3.03;;
32094;SDS011;18608;53.688;10.748;2022-08-25T15:35:56;5.83;;;3.97;;
32094;SDS011;18608;53.688;10.748;2022-08-25T15:38:22;11.60;;;3.77;;
32094;SDS011;18608;53.688;10.748;2022-08-25T15:40:48;4.17;;;3.03;;
32094;SDS011;18608;53.688;10.748;2022-08-25T15:43:14;4.47;;;3.40;;
32094;SDS011;18608;53.688;10.748;2022-08-25T15:45:40;7.67;;;4.10;;
32094;SDS011;18608;53.688;10.748;2022-08-25T15:48:06;11.03;;;3.80;;
32094;SDS011;18608;53.688;10.748;2022-08-25T15:50:31;6.90;;;3.50;;
32094;SDS011;18608;53.688;10.748;2022-08-25T15:52:57;3.90;;;3.60;;
32094;SDS011;18608;53.688;10.748;2022-08-25T15:55:22;8.10;;;4.33;;
32094;SDS011;18608;53.688;10.748;2022-08-25T15:57:48;3.73;;;3.40;;
32094;SDS011;18608;53.688;10.748;2022-08-25T16:00:14;6.73;;;3.30;;
32094;SDS011;18608;53.688;10.748;2022-08-25T16:02:40;6.10;;;3.47;;
32094;SDS011;18608;53.688;10.748;2022-08-25T16:05:07;3.40;;;3.10;;
32094;SDS011;18608;53.688;10.748;2022-08-25T16:07:34;7.40;;;3.50;;
32094;SDS011;18608;53.688;10.748;2022-08-25T16:10:00;6.40;;;3.30;;
32094;SDS011;18608;53.688;10.748;2022-08-25T16:12:26;3.53;;;3.30;;
32094;SDS011;18608;53.688;10.748;2022-08-25T16:14:52;6.50;;;3.20;;
32094;SDS011;18608;53.688;10.748;2022-08-25T16:17:18;4.00;;;3.60;;
32094;SDS011;18608;53.688;10.748;2022-08-25T16:19:44;4.63;;;3.90;;
32094;SDS011;18608;53.688;10.748;2022-08-25T16:22:10;4.87;;;3.30;;
32094;SDS011;18608;53.688;10.748;2022-08-25T16:24:42;5.47;;;3.30;;
32094;SDS011;18608;53.688;10.748;2022-08-25T16:27:09;11.40;;;4.00;;
32094;SDS011;18608;53.688;10.748;2022-08-25T16:29:36;5.67;;;3.60;;
32094;SDS011;18608;53.688;10.748;2022-08-25T16:32:04;3.67;;;3.33;;
32094;SDS011;18608;53.688;10.748;2022-08-25T16:34:31;4.10;;;3.53;;
32094;SDS011;18608;53.688;10.748;2022-08-25T16:36:57;4.80;;;3.93;;
32094;SDS011;18608;53.688;10.748;2022-08-25T16:39:23;7.13;;;4.67;;
32094;SDS011;18608;53.688;10.748;2022-08-25T16:41:49;7.27;;;3.90;;
32094;SDS011;18608;53.688;10.748;2022-08-25T16:44:16;6.23;;;4.30;;
32094;SDS011;18608;53.688;10.748;2022-08-25T16:46:42;5.70;;;4.20;;
32094;SDS011;18608;53.688;10.748;2022-08-25T16:49:09;4.57;;;3.30;;
32094;SDS011;18608;53.688;10.748;2022-08-25T16:51:36;8.93;;;4.03;;
32094;SDS011;18608;53.688;10.748;2022-08-25T16:54:03;5.40;;;3.73;;
32094;SDS011;18608;53.688;10.748;2022-08-25T16:56:49;4.70;;;4.20;;
32094;SDS011;18608;53.688;10.748;2022-08-25T16:59:15;8.20;;;4.00;;